createdAt,value
2017-07-17T00:01:04.840Z,2.80
2017-07-17T00:03:34.852Z,3.57
2017-07-17T00:06:04.716Z,3.37
2017-07-17T00:08:35.459Z,3.40
2017-07-17T00:11:05.417Z,2.70
2017-07-17T00:13:35.815Z,2.70
2017-07-17T00:16:05.776Z,2.45
2017-07-17T00:18:35.672Z,2.58
2017-07-17T00:21:05.717Z,2.00
2017-07-17T00:23:35.888Z,2.10
2017-07-17T00:26:05.716Z,2.00
2017-07-17T00:28:35.623Z,2.12
2017-07-17T00:31:05.561Z,3.20
2017-07-17T00:33:35.857Z,2.30
2017-07-17T00:36:05.753Z,2.53
2017-07-17T00:38:35.801Z,2.28
2017-07-17T00:41:05.852Z,2.70
2017-07-17T00:43:35.732Z,3.80
2017-07-17T00:46:06.369Z,3.72
2017-07-17T00:48:36.338Z,3.17
2017-07-17T00:51:07.127Z,2.42
2017-07-17T00:53:37.414Z,2.40
2017-07-17T00:56:07.168Z,2.80
2017-07-17T00:58:37.039Z,2.53
2017-07-17T01:01:06.927Z,2.33
2017-07-17T01:03:36.863Z,2.40
2017-07-17T01:06:06.987Z,2.25
2017-07-17T01:08:37.017Z,2.53
2017-07-17T01:11:06.576Z,2.20
2017-07-17T01:13:37.679Z,2.35
2017-07-17T01:16:07.502Z,2.50
2017-07-17T01:18:37.708Z,2.67
2017-07-17T01:21:07.630Z,3.00
2017-07-17T01:23:37.135Z,2.35
2017-07-17T01:26:06.949Z,2.50
2017-07-17T01:28:36.479Z,2.20
2017-07-17T01:31:06.168Z,2.15
2017-07-17T01:33:35.899Z,2.53
2017-07-17T01:36:05.764Z,2.22
2017-07-17T01:38:36.219Z,2.15
2017-07-17T01:41:06.253Z,2.40
2017-07-17T01:43:36.054Z,2.17
2017-07-17T01:46:06.150Z,2.00
2017-07-17T01:48:35.978Z,2.05
2017-07-17T01:51:05.788Z,2.20
2017-07-17T01:53:35.435Z,2.20
2017-07-17T01:56:05.482Z,2.37
2017-07-17T01:58:35.725Z,2.60
2017-07-17T02:01:05.304Z,2.70
2017-07-17T02:03:35.233Z,2.30
2017-07-17T02:06:05.020Z,2.37
2017-07-17T02:08:34.924Z,2.65
2017-07-17T02:11:04.902Z,3.10
2017-07-17T02:13:35.284Z,3.60
2017-07-17T02:16:04.999Z,2.50
2017-07-17T02:18:35.285Z,2.25
2017-07-17T02:21:05.188Z,2.25
2017-07-17T02:23:35.087Z,2.20
2017-07-17T02:26:05.794Z,2.00
2017-07-17T02:28:35.280Z,2.20
2017-07-17T02:31:04.802Z,2.65
2017-07-17T02:33:34.608Z,3.10
2017-07-17T02:36:04.569Z,3.47
2017-07-17T02:38:34.842Z,2.97
2017-07-17T02:41:05.164Z,2.30
2017-07-17T02:43:36.016Z,2.60
2017-07-17T02:46:06.081Z,2.10
2017-07-17T02:48:36.156Z,3.20
2017-07-17T02:51:06.414Z,2.42
2017-07-17T02:53:36.382Z,2.30
2017-07-17T02:56:06.232Z,2.45
2017-07-17T02:58:36.836Z,2.30
2017-07-17T03:01:07.120Z,1.83
2017-07-17T03:03:37.027Z,2.10
2017-07-17T03:06:07.333Z,2.33
2017-07-17T03:08:37.533Z,2.10
2017-07-17T03:11:07.888Z,2.28
2017-07-17T03:13:37.993Z,2.20
2017-07-17T03:16:07.919Z,2.40
2017-07-17T03:18:37.869Z,2.30
2017-07-17T03:21:07.907Z,2.00
2017-07-17T03:23:56.079Z,2.20
2017-07-17T03:26:25.624Z,2.20
2017-07-17T03:28:55.408Z,2.42
2017-07-17T03:31:24.963Z,2.08
2017-07-17T03:33:55.228Z,2.00
2017-07-17T03:36:25.871Z,2.40
2017-07-17T03:38:55.944Z,2.10
2017-07-17T03:41:25.891Z,2.00
2017-07-17T03:43:56.378Z,2.20
2017-07-17T03:46:25.871Z,2.20
2017-07-17T03:48:55.432Z,2.30
2017-07-17T03:51:25.227Z,2.50
2017-07-17T03:53:54.737Z,2.30
2017-07-17T03:56:24.248Z,2.28
2017-07-17T03:58:53.803Z,2.50
2017-07-17T04:01:23.310Z,2.78
2017-07-17T04:03:53.302Z,2.22
2017-07-17T04:06:23.110Z,2.08
2017-07-17T04:08:53.267Z,2.40
2017-07-17T04:11:24.226Z,2.70
2017-07-17T04:13:54.842Z,2.12
2017-07-17T04:16:24.904Z,2.30
2017-07-17T04:18:54.886Z,2.10
2017-07-17T04:21:24.492Z,2.00
2017-07-17T04:23:55.635Z,2.30
2017-07-17T04:26:26.120Z,2.57
2017-07-17T04:28:55.632Z,2.10
2017-07-17T04:31:25.445Z,2.20
2017-07-17T04:33:55.015Z,2.20
2017-07-17T04:36:24.519Z,2.40
2017-07-17T04:38:54.015Z,2.20
2017-07-17T04:41:24.361Z,2.00
2017-07-17T04:43:59.511Z,2.22
2017-07-17T04:46:35.015Z,2.00
2017-07-17T04:49:04.856Z,1.90
2017-07-17T04:51:34.477Z,2.20
2017-07-17T04:54:04.177Z,2.00
2017-07-17T04:56:33.996Z,2.10
2017-07-17T04:59:03.587Z,1.80
2017-07-17T05:01:33.089Z,1.90
2017-07-17T05:04:02.883Z,1.50
2017-07-17T05:06:32.468Z,1.50
2017-07-17T05:09:01.998Z,1.50
2017-07-17T05:11:31.823Z,1.45
2017-07-17T05:14:01.353Z,1.50
2017-07-17T05:16:31.276Z,1.37
2017-07-17T05:19:00.782Z,1.48
2017-07-17T05:21:30.567Z,1.75
2017-07-17T05:24:00.580Z,1.60
2017-07-17T05:26:30.287Z,1.48
2017-07-17T05:28:59.869Z,1.50
2017-07-17T05:31:29.759Z,2.00
2017-07-17T05:33:59.393Z,2.00
2017-07-17T05:36:29.224Z,1.83
2017-07-17T05:38:58.883Z,1.90
2017-07-17T05:41:28.534Z,2.10
2017-07-17T05:43:58.390Z,2.40
2017-07-17T05:46:27.931Z,1.83
2017-07-17T05:48:57.445Z,2.20
2017-07-17T05:51:27.192Z,2.00
2017-07-17T05:53:56.806Z,2.30
2017-07-17T05:56:26.643Z,2.40
2017-07-17T05:58:56.217Z,2.20
2017-07-17T06:01:25.712Z,1.80
2017-07-17T06:03:55.180Z,2.10
2017-07-17T06:06:24.695Z,1.83
2017-07-17T06:08:54.585Z,1.90
2017-07-17T06:11:24.536Z,2.00
2017-07-17T06:13:54.491Z,2.20
2017-07-17T06:16:24.944Z,1.90
2017-07-17T06:21:35.853Z,2.10
2017-07-17T06:24:06.712Z,2.00
2017-07-17T06:26:36.267Z,1.80
2017-07-17T06:29:06.306Z,2.00
2017-07-17T06:34:36.608Z,1.40
2017-07-17T06:37:06.214Z,1.60
2017-07-17T06:39:35.759Z,1.30
2017-07-17T06:42:10.184Z,1.67
2017-07-17T06:44:41.535Z,1.62
2017-07-17T06:47:11.687Z,1.40
2017-07-17T06:49:41.407Z,1.60
2017-07-17T06:52:12.142Z,2.05
2017-07-17T06:54:42.079Z,1.73
2017-07-17T06:57:12.609Z,1.67
2017-07-17T06:59:46.293Z,1.87
2017-07-17T07:02:42.284Z,1.40
2017-07-17T07:05:12.337Z,1.60
2017-07-17T07:07:42.153Z,1.62
2017-07-17T07:10:13.241Z,1.57
2017-07-17T07:12:43.315Z,1.33
2017-07-17T07:15:13.717Z,1.60
2017-07-17T07:17:48.643Z,1.60
2017-07-17T07:20:18.297Z,1.60
2017-07-17T07:22:50.106Z,1.50
2017-07-17T07:25:23.674Z,1.20
2017-07-17T07:27:56.550Z,1.20
2017-07-17T07:30:26.993Z,1.40
2017-07-17T07:32:58.780Z,1.80
2017-07-17T07:35:28.736Z,1.70
2017-07-17T07:37:59.533Z,1.62
2017-07-17T07:40:29.331Z,1.50
2017-07-17T07:45:55.625Z,1.50
2017-07-17T07:48:27.082Z,1.50
2017-07-17T07:50:56.795Z,1.80
2017-07-17T07:53:32.766Z,1.60
2017-07-17T07:56:04.169Z,1.30
2017-07-17T07:58:37.107Z,1.70
2017-07-17T08:01:07.152Z,2.05
2017-07-17T08:03:37.098Z,1.20
2017-07-17T08:06:06.681Z,1.30
2017-07-17T08:08:36.247Z,1.20
2017-07-17T08:11:08.355Z,1.40
2017-07-17T08:13:39.180Z,1.30
2017-07-17T08:16:10.406Z,1.10
2017-07-17T08:18:42.044Z,1.20
2017-07-17T08:21:11.946Z,1.20
2017-07-17T08:23:41.940Z,1.40
2017-07-17T08:26:11.590Z,1.40
2017-07-17T08:28:57.666Z,1.10
2017-07-17T08:31:27.632Z,1.10
2017-07-17T08:33:57.249Z,1.10
2017-07-17T08:36:27.496Z,1.35
2017-07-17T08:39:07.647Z,1.20
2017-07-17T08:41:38.774Z,1.30
2017-07-17T08:44:09.996Z,1.50
2017-07-17T08:46:42.395Z,1.30
2017-07-17T08:49:12.596Z,1.30
2017-07-17T08:51:42.463Z,1.40
2017-07-17T08:54:12.651Z,1.45
2017-07-17T08:59:43.657Z,1.60
2017-07-17T09:02:13.822Z,1.60
2017-07-17T09:04:45.940Z,1.20
2017-07-17T09:07:23.770Z,1.50
2017-07-17T09:09:53.754Z,1.85
2017-07-17T09:12:23.943Z,1.40
2017-07-17T09:21:05.213Z,1.60
2017-07-17T09:23:35.413Z,1.40
2017-07-17T09:26:04.974Z,1.45
2017-07-17T09:28:34.511Z,1.50
2017-07-17T09:31:06.200Z,1.62
2017-07-17T09:33:56.809Z,1.55
2017-07-17T09:36:31.373Z,1.50
2017-07-17T09:39:01.541Z,1.50
2017-07-17T09:41:31.570Z,1.77
2017-07-17T09:44:03.227Z,2.00
2017-07-17T09:46:36.121Z,1.80
2017-07-17T09:49:06.632Z,1.90
2017-07-17T09:51:36.734Z,1.30
2017-07-17T09:54:07.206Z,1.80
2017-07-17T09:56:40.691Z,1.50
2017-07-17T09:59:20.094Z,1.92
2017-07-17T10:01:50.602Z,2.00
2017-07-17T10:04:30.825Z,1.90
2017-07-17T10:07:01.956Z,2.00
2017-07-17T10:09:38.547Z,1.50
2017-07-17T10:12:10.575Z,1.58
2017-07-17T10:14:40.555Z,1.70
2017-07-17T10:17:10.495Z,1.60
2017-07-17T10:19:41.693Z,1.50
2017-07-17T10:22:12.050Z,1.50
2017-07-17T10:24:43.298Z,1.70
2017-07-17T10:27:26.208Z,1.30
2017-07-17T10:30:34.969Z,1.70
2017-07-17T10:33:05.156Z,2.20
2017-07-17T10:35:35.816Z,1.90
2017-07-17T10:38:05.431Z,1.50
2017-07-17T10:40:35.730Z,2.00
2017-07-17T10:43:05.379Z,1.40
2017-07-17T10:45:36.994Z,1.65
2017-07-17T10:48:07.171Z,2.00
2017-07-17T10:50:44.680Z,1.73
2017-07-17T10:53:29.311Z,1.60
2017-07-17T10:55:59.333Z,1.73
2017-07-17T10:58:29.554Z,1.83
2017-07-17T11:00:59.456Z,1.80
2017-07-17T11:03:30.145Z,1.98
2017-07-17T11:06:09.205Z,1.80
2017-07-17T11:08:38.936Z,2.10
2017-07-17T11:11:16.525Z,1.80
2017-07-17T11:16:55.820Z,2.10
2017-07-17T11:19:26.252Z,1.70
2017-07-17T11:21:55.843Z,2.00
2017-07-17T11:24:25.701Z,2.20
2017-07-17T11:26:57.345Z,2.20
2017-07-17T11:29:27.627Z,1.90
2017-07-17T11:32:03.563Z,2.05
2017-07-17T11:34:33.122Z,1.80
2017-07-17T11:37:02.833Z,2.00
2017-07-17T11:39:32.854Z,1.93
2017-07-17T11:42:02.744Z,1.80
2017-07-17T11:44:32.520Z,1.95
2017-07-17T12:00:19.528Z,1.90
2017-07-17T12:02:50.091Z,1.90
2017-07-17T12:07:53.552Z,1.90
2017-07-17T12:10:23.893Z,1.70
2017-07-17T12:12:53.518Z,1.85
2017-07-17T12:15:23.521Z,2.00
2017-07-17T12:17:55.212Z,1.92
2017-07-17T12:20:25.084Z,1.60
2017-07-17T12:25:54.725Z,1.70
2017-07-17T12:28:28.613Z,2.00
2017-07-17T12:30:58.745Z,1.75
2017-07-17T12:33:34.763Z,2.00
2017-07-17T12:36:04.890Z,1.80
2017-07-17T12:41:16.954Z,2.15
2017-07-17T12:43:59.149Z,1.65
2017-07-17T12:51:58.713Z,2.10
2017-07-17T12:54:35.147Z,2.12
2017-07-17T12:57:23.246Z,1.90
2017-07-17T13:00:00.619Z,1.92
2017-07-17T13:02:40.178Z,1.75
2017-07-17T13:05:10.185Z,2.00
2017-07-17T13:07:44.823Z,1.95
2017-07-17T13:10:29.015Z,2.20
2017-07-17T13:13:47.267Z,1.90
2017-07-17T13:16:22.789Z,2.00
2017-07-17T13:19:03.973Z,2.00
2017-07-17T13:21:42.516Z,2.08
2017-07-17T13:24:12.904Z,1.90
2017-07-17T13:26:45.445Z,2.10
2017-07-17T13:29:20.932Z,2.40
2017-07-17T13:31:51.899Z,1.85
2017-07-17T13:34:37.716Z,2.20
2017-07-17T13:37:09.024Z,1.90
2017-07-17T13:42:38.854Z,2.08
2017-07-17T13:49:38.345Z,1.77
2017-07-17T13:52:09.817Z,2.17
2017-07-17T13:54:57.641Z,2.10
2017-07-17T13:57:28.773Z,2.03
2017-07-17T14:00:06.162Z,2.20
2017-07-17T14:02:40.807Z,2.28
2017-07-17T14:05:33.446Z,2.12
2017-07-17T14:08:04.000Z,2.40
2017-07-17T14:13:56.449Z,2.08
2017-07-17T14:16:29.648Z,2.27
2017-07-17T14:19:00.974Z,2.10
2017-07-17T14:21:32.522Z,2.20
2017-07-17T14:24:02.842Z,2.30
2017-07-17T14:26:32.946Z,2.15
2017-07-17T14:29:16.641Z,2.53
2017-07-17T14:31:46.852Z,2.33
2017-07-17T14:34:16.980Z,2.30
2017-07-17T14:36:47.726Z,2.40
2017-07-17T14:39:18.296Z,2.30
2017-07-17T14:42:04.562Z,2.45
2017-07-17T14:44:34.595Z,2.40
2017-07-17T14:47:12.291Z,2.35
2017-07-17T14:49:47.837Z,2.60
2017-07-17T14:52:19.357Z,2.10
2017-07-17T14:54:52.989Z,2.78
2017-07-17T14:57:22.663Z,2.70
2017-07-17T14:59:53.239Z,2.80
2017-07-17T15:02:23.165Z,2.50
2017-07-17T15:04:55.117Z,2.40
2017-07-17T15:07:25.898Z,2.62
2017-07-17T15:09:58.643Z,2.10
2017-07-17T15:12:45.984Z,2.60
2017-07-17T15:15:20.305Z,2.55
2017-07-17T15:17:52.025Z,2.40
2017-07-17T15:20:26.513Z,2.50
2017-07-17T15:22:56.508Z,2.40
2017-07-17T15:25:27.225Z,2.20
2017-07-17T15:28:01.542Z,2.70
2017-07-17T15:30:31.759Z,2.30
2017-07-17T15:33:03.528Z,2.20
2017-07-17T15:35:33.989Z,2.40
2017-07-17T15:38:11.049Z,2.20
2017-07-17T15:40:42.009Z,2.10
2017-07-17T15:43:11.922Z,2.10
2017-07-17T15:45:42.082Z,2.00
2017-07-17T15:48:12.447Z,2.00
2017-07-17T15:50:42.159Z,1.90
2017-07-17T15:53:13.572Z,2.10
2017-07-17T15:55:43.327Z,2.20
2017-07-17T15:58:13.307Z,2.10
2017-07-17T16:00:50.154Z,1.85
2017-07-17T16:03:20.001Z,1.80
2017-07-17T16:05:52.951Z,1.90
2017-07-17T16:08:35.427Z,2.20
2017-07-17T16:11:07.856Z,2.05
2017-07-17T16:16:39.765Z,1.62
2017-07-17T16:19:26.662Z,1.80
2017-07-17T16:22:00.074Z,2.30
2017-07-17T16:24:44.713Z,1.80
2017-07-17T16:27:15.175Z,2.00
2017-07-17T16:29:45.143Z,2.00
2017-07-17T16:32:14.753Z,1.90
2017-07-17T16:34:44.339Z,1.70
2017-07-17T16:37:14.007Z,1.98
2017-07-17T16:39:44.725Z,1.70
2017-07-17T16:42:15.001Z,2.00
2017-07-17T16:44:45.998Z,1.70
2017-07-17T16:47:16.571Z,1.63
2017-07-17T16:49:46.685Z,2.00
2017-07-17T16:52:19.415Z,2.30
2017-07-17T16:54:49.874Z,1.90
2017-07-17T16:57:23.452Z,2.03
2017-07-17T16:59:53.910Z,1.90
2017-07-17T17:02:24.644Z,1.70
2017-07-17T17:04:54.941Z,1.77
2017-07-17T17:07:25.414Z,1.70
2017-07-17T17:11:28.122Z,2.00
2017-07-17T17:17:17.783Z,2.47
2017-07-17T17:19:53.489Z,2.20
2017-07-17T17:22:33.029Z,2.30
2017-07-17T17:25:02.905Z,2.17
2017-07-17T17:27:34.360Z,1.90
2017-07-17T17:30:06.739Z,2.30
2017-07-17T17:32:37.120Z,2.30
2017-07-17T17:35:11.457Z,1.92
2017-07-17T17:37:46.286Z,1.95
2017-07-17T17:40:16.829Z,2.00
2017-07-17T17:42:46.644Z,1.80
2017-07-17T17:45:16.342Z,1.70
2017-07-17T17:47:46.690Z,2.10
2017-07-17T17:50:16.475Z,2.30
2017-07-17T17:52:46.775Z,2.00
2017-07-17T17:55:16.531Z,2.30
2017-07-17T17:57:46.550Z,2.30
2017-07-17T18:00:18.342Z,2.12
2017-07-17T18:02:49.721Z,2.40
2017-07-17T18:08:20.387Z,2.50
2017-07-17T18:10:50.356Z,2.17
2017-07-17T18:13:22.792Z,2.00
2017-07-17T18:15:53.598Z,2.00
2017-07-17T18:18:23.660Z,2.00
2017-07-17T18:20:53.591Z,2.50
2017-07-17T18:23:23.429Z,2.50
2017-07-17T18:25:53.944Z,2.20
2017-07-17T18:28:23.954Z,2.60
2017-07-17T18:30:53.613Z,2.50
2017-07-17T18:33:23.515Z,2.67
2017-07-17T18:35:53.221Z,3.28
2017-07-17T18:38:22.792Z,3.10
2017-07-17T18:40:53.375Z,2.60
2017-07-17T18:43:23.007Z,2.60
2017-07-17T18:45:53.178Z,2.95
2017-07-17T18:48:25.242Z,2.90
2017-07-17T18:50:59.293Z,2.95
2017-07-17T18:56:16.026Z,3.00
2017-07-17T18:59:20.906Z,3.30
2017-07-17T19:01:58.293Z,3.00
2017-07-17T19:04:28.484Z,3.00
2017-07-17T19:06:58.497Z,2.90
2017-07-17T19:09:30.763Z,2.47
2017-07-17T19:12:03.760Z,2.80
2017-07-17T19:14:33.704Z,2.90
2017-07-17T19:17:03.604Z,2.70
2017-07-17T19:19:34.306Z,2.75
2017-07-17T19:22:04.261Z,2.97
2017-07-17T19:24:34.488Z,3.10
2017-07-17T19:27:39.738Z,3.00
2017-07-17T19:30:09.384Z,3.53
2017-07-17T19:32:39.404Z,3.08
2017-07-17T19:35:09.432Z,3.30
2017-07-17T19:37:39.151Z,3.80
2017-07-17T19:40:10.743Z,3.10
2017-07-17T19:42:40.360Z,3.35
2017-07-17T19:45:10.893Z,3.90
2017-07-17T19:47:40.999Z,4.90
2017-07-17T19:50:14.653Z,4.35
2017-07-17T19:52:44.428Z,3.95
2017-07-17T19:55:14.498Z,3.60
2017-07-17T19:57:44.856Z,3.10
2017-07-17T20:00:14.866Z,3.20
2017-07-17T20:02:44.805Z,4.10
2017-07-17T20:05:14.503Z,3.62
2017-07-17T20:07:44.498Z,3.37
2017-07-17T20:10:14.336Z,3.00
2017-07-17T20:12:44.101Z,3.83
2017-07-17T20:15:14.794Z,4.60
2017-07-17T20:17:44.418Z,4.90
2017-07-17T20:20:14.403Z,6.00
2017-07-17T20:22:44.767Z,4.85
2017-07-17T20:25:47.549Z,4.40
2017-07-17T20:28:17.783Z,4.05
2017-07-17T20:30:47.514Z,3.60
2017-07-17T20:33:44.390Z,3.47
2017-07-17T20:36:16.471Z,3.53
2017-07-17T20:38:46.892Z,3.80
2017-07-17T20:41:16.789Z,3.40
2017-07-17T20:43:46.352Z,3.70
2017-07-17T20:46:17.032Z,4.00
2017-07-17T20:48:48.550Z,5.37
2017-07-17T20:51:18.124Z,4.60
2017-07-17T20:53:48.182Z,5.78
2017-07-17T20:56:17.720Z,3.70
2017-07-17T20:58:47.321Z,3.60
2017-07-17T21:01:17.278Z,4.20
2017-07-17T21:03:46.910Z,4.62
2017-07-17T21:06:45.696Z,4.40
2017-07-17T21:09:15.763Z,5.10
2017-07-17T21:11:46.099Z,3.90
2017-07-17T21:14:15.697Z,3.40
2017-07-17T21:16:45.988Z,3.15
2017-07-17T21:19:15.939Z,3.73
2017-07-17T21:21:45.866Z,3.70
2017-07-17T21:24:15.955Z,3.47
2017-07-17T21:27:15.518Z,3.37
2017-07-17T21:29:45.123Z,3.33
2017-07-17T21:32:15.169Z,3.50
2017-07-17T21:34:44.758Z,3.90
2017-07-17T21:37:14.306Z,3.58
2017-07-17T21:39:44.554Z,3.42
2017-07-17T21:42:14.134Z,3.80
2017-07-17T21:44:44.767Z,4.00
2017-07-17T21:47:15.172Z,3.80
2017-07-17T21:49:44.743Z,4.15
2017-07-17T21:52:14.396Z,3.85
2017-07-17T21:54:44.243Z,3.80
2017-07-17T21:57:13.774Z,4.00
2017-07-17T21:59:43.318Z,4.00
2017-07-17T22:02:13.946Z,5.05
2017-07-17T22:04:44.065Z,4.47
2017-07-17T22:07:14.078Z,4.22
2017-07-17T22:09:43.603Z,4.10
2017-07-17T22:12:13.210Z,3.72
2017-07-17T22:14:43.566Z,4.00
2017-07-17T22:17:13.734Z,4.03
2017-07-17T22:19:43.810Z,4.20
2017-07-17T22:22:13.809Z,3.80
2017-07-17T22:24:43.497Z,3.60
2017-07-17T22:27:14.814Z,4.28
2017-07-17T22:29:44.490Z,4.53
2017-07-17T22:32:16.249Z,5.03
2017-07-17T22:34:46.538Z,5.70
2017-07-17T22:37:16.458Z,4.93
2017-07-17T22:39:46.103Z,4.67
2017-07-17T22:42:15.833Z,5.10
2017-07-17T22:44:45.534Z,4.20
2017-07-17T22:47:16.036Z,3.95
2017-07-17T22:49:45.856Z,3.70
2017-07-17T22:52:15.857Z,3.50
2017-07-17T22:54:45.499Z,4.32
2017-07-17T22:57:15.022Z,4.90
2017-07-17T22:59:44.998Z,4.90
2017-07-17T23:02:14.551Z,5.27
2017-07-17T23:04:44.129Z,5.90
2017-07-17T23:07:14.046Z,4.72
2017-07-17T23:09:43.587Z,4.70
2017-07-17T23:12:13.139Z,5.10
2017-07-17T23:14:42.691Z,4.50
2017-07-17T23:17:12.208Z,4.43
2017-07-17T23:19:42.337Z,4.20
2017-07-17T23:23:41.459Z,3.80
2017-07-17T23:26:11.572Z,4.70
2017-07-17T23:28:41.245Z,5.10
2017-07-17T23:31:12.449Z,5.47
2017-07-17T23:33:42.299Z,4.30
2017-07-17T23:36:12.124Z,4.35
2017-07-17T23:38:42.073Z,4.40
2017-07-17T23:41:12.112Z,4.20
2017-07-17T23:43:42.587Z,3.40
2017-07-17T23:46:14.733Z,3.80
2017-07-17T23:48:44.752Z,3.70
2017-07-17T23:51:14.858Z,4.03
2017-07-17T23:53:47.016Z,4.40
2017-07-17T23:56:17.027Z,4.47
2017-07-17T23:58:46.875Z,3.97
